This is the latest recevied weather packets stored in our database for station/object KG5VSR. If no packets are shown the sender has not sent any weather packets the latest 10 day(s).
| Time | Temp. | Humidity | Pressure | Rain* | Wind** | Luminosity | Snow |
|---|---|---|---|---|---|---|---|
| 1777312863 | 32.22° C | 66% | 1008.7 hPa | 0 mm | - | 710 W/m² | - |
| 1777311064 | 31.67° C | 70% | 1009 hPa | 0 mm | - | 704 W/m² | - |
| 1777309259 | 30.56° C | 72% | 1009.1 hPa | 0 mm | - | 736 W/m² | - |
| 1777307455 | 30° C | 74% | 1009 hPa | 0 mm | - | 731 W/m² | - |
| 1777305650 | 28.89° C | 79% | 1008.9 hPa | 0 mm | - | 647 W/m² | - |
| 1777303850 | 27.78° C | 82% | 1008.7 hPa | 0 mm | - | 304 W/m² | - |
| 1777302046 | 27.22° C | 84% | 1008.6 hPa | 0 mm | - | 383 W/m² | - |
| 1777300242 | 26.11° C | 86% | 1008.3 hPa | 0 mm | - | 313 W/m² | - |
| 1777298442 | 25° C | 89% | 1008.4 hPa | 0 mm | - | 227 W/m² | - |
| 1777296639 | 25° C | 89% | 1008.5 hPa | 0 mm | - | 139 W/m² | - |
| 1777294834 | 24.44° C | 89% | 1008.1 hPa | 0 mm | - | 73 W/m² | - |
| 1777293032 | 24.44° C | 89% | 1008 hPa | 0 mm | - | 40 W/m² | - |
| 1777291232 | 24.44° C | 88% | 1008 hPa | 0 mm | - | 3 W/m² | - |
| 1777289427 | 24.44° C | 89% | 1007.8 hPa | 0 mm | - | 0 W/m² | - |
| 1777287625 | 24.44° C | 89% | 1006.8 hPa | 0 mm | - | 0 W/m² | - |
| 1777285824 | 24.44° C | 89% | 1006.1 hPa | 0 mm | - | 0 W/m² | - |
| 1777284024 | 24.44° C | 90% | 1006.1 hPa | 0 mm | - | 0 W/m² | - |
| 1777282224 | 23.89° C | 90% | 1006.2 hPa | 0 mm | - | 0 W/m² | - |
| 1777280424 | 23.89° C | 92% | 1006.4 hPa | 0 mm | - | 0 W/m² | - |
| 1777278622 | 23.89° C | 93% | 1006.2 hPa | 0 mm | - | 0 W/m² | - |
| 1777276822 | 23.89° C | 93% | 1005.9 hPa | 0 mm | - | 0 W/m² | - |
| 1777275020 | 23.89° C | 93% | 1005.8 hPa | 0 mm | - | 0 W/m² | - |
| 1777273218 | 23.89° C | 93% | 1006.3 hPa | 0 mm | - | 0 W/m² | - |
| 1777271416 | 24.44° C | 92% | 1006.5 hPa | 0 mm | - | 0 W/m² | - |
| 1777269612 | 24.44° C | 91% | 1006.5 hPa | 0 mm | - | 0 W/m² | - |
* Rain latest hour (hover to see other rain measurements)
** Current wind speed in m/s (hover to see current wind gust speed)